Time;durP1;ratioP1;P1;durP2;ratioP2;P2;SDS_P1;SDS_P2;PMS_P1;PMS_P2;Temp;Humidity;BMP_temperature;BMP_pressure;BME280_temperature;BME280_humidity;BME280_pressure;Samples;Min_cycle;Max_cycle;Signal;HPM_P1;HPM_P2
2022/12/09 00:01:38;;;;;;;5.07;4.10;;;-0.90;99.90;;;;;;5062854;28;20131;-76
2022/12/09 00:04:03;;;;;;;9.87;5.03;;;-0.90;99.90;;;;;;5064342;28;20041;-78
2022/12/09 00:06:29;;;;;;;8.63;5.33;;;-0.90;99.90;;;;;;5063580;28;20044;-77
2022/12/09 00:08:56;;;;;;;4.70;3.50;;;-0.90;99.90;;;;;;5063174;28;20124;-77
2022/12/09 00:11:23;;;;;;;5.67;4.77;;;-0.90;99.90;;;;;;5063469;28;20080;-78
2022/12/09 00:13:49;;;;;;;8.70;5.53;;;-0.90;99.90;;;;;;5064006;28;20080;-80
2022/12/09 00:16:16;;;;;;;18.97;8.47;;;-0.90;99.90;;;;;;5063463;28;20093;-76
2022/12/09 00:18:42;;;;;;;52.53;13.30;;;-1.00;99.90;;;;;;5063179;28;20044;-79
2022/12/09 00:21:25;;;;;;;7.90;5.63;;;-1.00;99.90;;;;;;5061959;28;20442;-77
2022/12/09 00:23:53;;;;;;;8.83;5.27;;;-1.00;99.90;;;;;;5062995;28;20045;-77
2022/12/09 00:26:20;;;;;;;9.83;6.03;;;-1.00;99.90;;;;;;5063975;28;20045;-79
2022/12/09 00:28:47;;;;;;;8.27;6.73;;;-1.10;99.90;;;;;;5063986;28;20041;-76
2022/12/09 00:31:23;;;;;;;30.63;10.17;;;-1.10;99.90;;;;;;5060558;28;20584;-77
2022/12/09 00:33:49;;;;;;;40.33;9.73;;;-1.10;99.90;;;;;;5063504;28;20040;-80
2022/12/09 00:36:18;;;;;;;13.33;6.57;;;-1.20;99.90;;;;;;5062146;28;20162;-76
2022/12/09 00:38:44;;;;;;;79.97;16.70;;;-1.10;99.90;;;;;;5061751;28;20028;-78
2022/12/09 00:41:11;;;;;;;63.00;12.67;;;-1.20;99.90;;;;;;5061963;28;20048;-76
2022/12/09 00:43:37;;;;;;;100.60;14.60;;;-1.20;99.90;;;;;;5061669;28;20486;-77
2022/12/09 00:46:03;;;;;;;94.83;18.07;;;-1.20;99.90;;;;;;5061828;28;20045;-76
2022/12/09 00:48:29;;;;;;;113.53;17.27;;;-1.20;99.90;;;;;;5063226;28;20044;-77
2022/12/09 00:50:55;;;;;;;152.07;21.90;;;-1.20;99.90;;;;;;5063505;28;20115;-76
2022/12/09 00:53:21;;;;;;;48.33;11.87;;;-1.20;99.90;;;;;;5063382;28;20044;-77
2022/12/09 00:55:47;;;;;;;72.87;15.73;;;-1.30;99.90;;;;;;5061820;28;20359;-77
2022/12/09 00:58:13;;;;;;;76.97;10.73;;;-1.30;99.90;;;;;;5061695;28;20403;-78
2022/12/09 01:00:40;;;;;;;53.57;10.13;;;-1.20;99.90;;;;;;5062517;28;20062;-76
2022/12/09 01:03:05;;;;;;;18.13;7.33;;;-1.30;99.90;;;;;;5060899;28;20036;-76
2022/12/09 01:05:34;;;;;;;93.53;21.43;;;-1.20;99.90;;;;;;5061643;28;20122;-77
2022/12/09 01:07:59;;;;;;;120.90;36.03;;;-1.20;99.90;;;;;;5061840;28;20701;-76
2022/12/09 01:10:25;;;;;;;114.47;24.67;;;-1.20;99.90;;;;;;5061541;28;20048;-77
2022/12/09 01:12:51;;;;;;;87.33;17.27;;;-1.20;99.90;;;;;;5060623;28;20056;-77
2022/12/09 01:15:16;;;;;;;66.07;10.63;;;-1.20;99.90;;;;;;5062500;28;20055;-77
2022/12/09 01:17:42;;;;;;;62.43;17.33;;;-1.20;99.90;;;;;;5062309;28;20398;-76
2022/12/09 01:20:08;;;;;;;101.10;18.93;;;-1.20;99.90;;;;;;5062037;28;20510;-76
2022/12/09 01:22:35;;;;;;;74.10;11.97;;;-1.20;99.90;;;;;;5062201;28;20040;-76
2022/12/09 01:25:01;;;;;;;119.77;19.47;;;-1.20;99.90;;;;;;5062297;28;20449;-77
2022/12/09 01:27:29;;;;;;;53.30;11.67;;;-1.20;99.90;;;;;;5046434;28;20041;-76
2022/12/09 01:29:55;;;;;;;64.50;11.77;;;-1.20;99.90;;;;;;5044310;28;20044;-76
2022/12/09 01:32:20;;;;;;;47.23;11.70;;;-1.20;99.90;;;;;;5059918;28;20125;-78
2022/12/09 01:34:46;;;;;;;64.23;17.53;;;-1.20;99.90;;;;;;5062713;28;20039;-78
2022/12/09 01:37:11;;;;;;;67.77;12.47;;;-1.20;99.90;;;;;;5061017;28;20048;-76
2022/12/09 01:39:38;;;;;;;47.57;12.43;;;-1.20;99.90;;;;;;5061874;28;20036;-77
2022/12/09 01:42:04;;;;;;;61.53;12.80;;;-1.20;99.90;;;;;;5060834;28;20040;-77
2022/12/09 01:44:32;;;;;;;59.53;11.87;;;-1.20;99.90;;;;;;5061109;28;20040;-78
2022/12/09 01:47:00;;;;;;;135.57;15.33;;;-1.20;99.90;;;;;;5060935;28;20079;-77
2022/12/09 01:49:37;;;;;;;158.67;27.43;;;-1.20;99.90;;;;;;5061662;28;20102;-77
2022/12/09 01:52:14;;;;;;;103.90;13.23;;;-1.20;99.90;;;;;;5062163;28;20040;-76
2022/12/09 01:54:42;;;;;;;139.63;20.27;;;-1.20;99.90;;;;;;5062035;28;20040;-76
2022/12/09 01:57:08;;;;;;;104.03;15.87;;;-1.20;99.90;;;;;;5060220;28;20051;-77
2022/12/09 01:59:35;;;;;;;102.40;14.43;;;-1.20;99.90;;;;;;5061061;28;20044;-76
2022/12/09 02:02:03;;;;;;;104.90;27.50;;;-1.30;99.90;;;;;;5060556;28;20533;-76
2022/12/09 02:04:33;;;;;;;118.83;21.33;;;-1.30;99.90;;;;;;5060251;28;20120;-76
2022/12/09 02:07:01;;;;;;;151.17;23.00;;;-1.30;99.90;;;;;;5061572;28;20041;-76
2022/12/09 02:09:26;;;;;;;62.77;11.37;;;-1.30;99.90;;;;;;5061383;28;20045;-78
2022/12/09 02:12:04;;;;;;;210.47;33.67;;;-1.30;99.90;;;;;;5061503;28;20091;-77
2022/12/09 02:14:40;;;;;;;109.67;22.27;;;-1.30;99.90;;;;;;5061573;28;20033;-76
2022/12/09 02:17:24;;;;;;;194.80;22.43;;;-1.40;99.90;;;;;;5061100;28;20029;-76
2022/12/09 02:20:11;;;;;;;165.53;30.20;;;-1.40;99.90;;;;;;5059351;28;20060;-76
2022/12/09 02:22:46;;;;;;;192.23;27.40;;;-1.40;99.90;;;;;;5061847;28;20071;-77
2022/12/09 02:25:26;;;;;;;153.03;22.53;;;-1.40;99.90;;;;;;5061419;28;20524;-76
2022/12/09 02:28:07;;;;;;;140.00;21.23;;;-1.40;99.90;;;;;;5039871;28;20055;-78
2022/12/09 02:30:49;;;;;;;127.77;20.93;;;-1.40;99.90;;;;;;5052350;28;20052;-77
2022/12/09 02:33:35;;;;;;;201.18;32.88;;;-1.50;99.90;;;;;;5061618;28;20043;-76
2022/12/09 02:36:21;;;;;;;122.80;24.67;;;-1.40;99.90;;;;;;5060767;28;20051;-77
2022/12/09 02:38:48;;;;;;;110.83;28.87;;;-1.40;99.90;;;;;;5061856;28;20116;-76
2022/12/09 02:41:18;;;;;;;58.57;13.10;;;-1.50;99.90;;;;;;5061613;28;20128;-77
2022/12/09 02:43:48;;;;;;;81.03;12.80;;;-1.50;99.90;;;;;;5062653;28;20076;-77
2022/12/09 02:46:17;;;;;;;121.10;25.37;;;-1.50;99.90;;;;;;5063306;28;20040;-77
2022/12/09 02:48:50;;;;;;;103.17;19.43;;;-1.50;99.90;;;;;;5064437;28;20536;-77
2022/12/09 02:51:18;;;;;;;77.87;17.40;;;-1.60;99.90;;;;;;5065773;28;20068;-78
2022/12/09 02:53:47;;;;;;;34.80;11.63;;;-1.60;99.90;;;;;;5065775;28;20497;-79
2022/12/09 02:56:14;;;;;;;7.97;4.67;;;-1.60;99.90;;;;;;5064928;28;20094;-76
2022/12/09 02:58:39;;;;;;;8.73;4.83;;;-1.60;99.90;;;;;;5064481;28;20051;-76
2022/12/09 03:01:17;;;;;;;7.77;4.20;;;-1.60;99.90;;;;;;5062825;28;20044;-77
2022/12/09 03:03:44;;;;;;;8.47;4.80;;;-1.70;99.90;;;;;;5065249;28;20090;-76
2022/12/09 03:06:14;;;;;;;9.20;5.93;;;-1.70;99.90;;;;;;5064251;28;20395;-76
2022/12/09 03:08:57;;;;;;;5.23;4.73;;;-1.60;99.90;;;;;;5063782;28;20497;-76
2022/12/09 03:11:23;;;;;;;5.67;5.07;;;-1.60;99.90;;;;;;5064742;28;20073;-78
2022/12/09 03:14:05;;;;;;;5.03;4.53;;;-1.70;99.90;;;;;;5065241;28;20087;-77
2022/12/09 03:16:48;;;;;;;7.03;5.27;;;-1.70;99.90;;;;;;5063873;28;20050;-76
2022/12/09 03:19:26;;;;;;;6.67;4.97;;;-1.80;99.90;;;;;;5064565;28;20041;-77
2022/12/09 03:21:56;;;;;;;8.37;5.13;;;-1.80;99.90;;;;;;5064510;28;20131;-76
2022/12/09 03:24:33;;;;;;;10.10;5.20;;;-1.90;99.90;;;;;;5064676;28;20044;-77
2022/12/09 03:27:03;;;;;;;5.50;4.10;;;-1.90;99.90;;;;;;5051240;28;20088;-77
2022/12/09 03:29:33;;;;;;;12.77;5.97;;;-1.90;99.90;;;;;;5045147;28;20127;-78
2022/12/09 03:31:59;;;;;;;6.03;4.30;;;-1.80;99.90;;;;;;5042847;28;20514;-76
2022/12/09 03:34:29;;;;;;;5.23;3.77;;;-1.80;99.90;;;;;;5044507;28;20037;-76
2022/12/09 03:36:57;;;;;;;5.60;3.87;;;-1.80;99.90;;;;;;5044103;28;20045;-76
2022/12/09 03:39:26;;;;;;;5.27;4.00;;;-1.90;99.90;;;;;;5044575;28;20091;-76
2022/12/09 03:41:57;;;;;;;6.97;5.90;;;-1.90;99.90;;;;;;5043626;28;20248;-76
2022/12/09 03:44:37;;;;;;;7.73;5.67;;;-1.80;99.90;;;;;;5043301;28;20033;-76
2022/12/09 03:47:05;;;;;;;6.73;5.50;;;-1.80;99.90;;;;;;5043845;28;20044;-76
2022/12/09 03:49:32;;;;;;;11.43;6.37;;;-1.70;99.90;;;;;;5047292;28;20710;-77
2022/12/09 03:52:01;;;;;;;8.50;5.20;;;-1.80;99.90;;;;;;5062187;28;20040;-76
2022/12/09 03:54:44;;;;;;;9.03;6.67;;;-1.80;99.90;;;;;;5063682;28;20473;-76
2022/12/09 03:57:15;;;;;;;11.07;5.90;;;-1.70;99.90;;;;;;5063719;28;20048;-77
2022/12/09 03:59:45;;;;;;;11.70;7.90;;;-1.70;99.90;;;;;;5064217;28;20099;-76
2022/12/09 04:02:11;;;;;;;10.00;6.00;;;-1.70;99.90;;;;;;5063064;28;20426;-77
2022/12/09 04:04:41;;;;;;;9.97;6.17;;;-1.70;99.90;;;;;;5064363;28;20124;-75
2022/12/09 04:07:07;;;;;;;8.70;6.03;;;-1.70;99.90;;;;;;5064152;28;20383;-76
2022/12/09 04:09:33;;;;;;;7.93;6.23;;;-1.70;99.90;;;;;;5063782;28;20439;-75
2022/12/09 04:11:59;;;;;;;9.60;6.33;;;-1.70;99.90;;;;;;5063461;28;20387;-76
2022/12/09 04:14:24;;;;;;;8.27;5.90;;;-1.70;99.90;;;;;;5064061;28;20494;-77
2022/12/09 04:16:50;;;;;;;10.57;5.83;;;-1.60;99.90;;;;;;5062653;28;20554;-76
2022/12/09 04:19:16;;;;;;;9.47;6.17;;;-1.60;99.90;;;;;;5062938;28;20675;-77
2022/12/09 04:21:42;;;;;;;10.43;6.03;;;-1.50;99.90;;;;;;5062168;28;20053;-77
2022/12/09 04:24:08;;;;;;;7.20;6.13;;;-1.60;99.90;;;;;;5063357;28;20041;-76
2022/12/09 04:26:34;;;;;;;7.03;5.03;;;-1.50;99.90;;;;;;5054410;28;20329;-78
2022/12/09 04:29:00;;;;;;;23.80;6.80;;;-1.50;99.90;;;;;;5043380;28;20368;-77
2022/12/09 04:31:25;;;;;;;11.33;6.07;;;-1.50;99.90;;;;;;5045830;28;20040;-75
2022/12/09 04:33:51;;;;;;;13.70;7.77;;;-1.50;99.90;;;;;;5063129;28;20063;-75
2022/12/09 04:36:18;;;;;;;9.70;6.10;;;-1.50;99.90;;;;;;5063696;28;20036;-76
2022/12/09 04:38:44;;;;;;;15.50;6.63;;;-1.50;99.90;;;;;;5064266;28;20403;-75
2022/12/09 04:41:11;;;;;;;10.10;6.17;;;-1.50;99.90;;;;;;5062549;28;20037;-78
2022/12/09 04:43:37;;;;;;;17.97;7.03;;;-1.50;99.90;;;;;;5063063;28;20060;-75
2022/12/09 04:46:05;;;;;;;11.83;5.93;;;-1.50;99.90;;;;;;5060645;28;20545;-78
2022/12/09 04:48:31;;;;;;;9.10;6.07;;;-1.50;99.90;;;;;;5063194;28;20044;-77
2022/12/09 04:50:58;;;;;;;10.67;6.77;;;-1.50;99.90;;;;;;5062506;28;20044;-75
2022/12/09 04:53:24;;;;;;;9.77;5.77;;;-1.40;99.90;;;;;;5062706;28;20398;-75
2022/12/09 04:56:01;;;;;;;9.53;5.87;;;-1.40;99.90;;;;;;5063016;28;20066;-76
2022/12/09 04:58:27;;;;;;;12.93;6.03;;;-1.40;99.90;;;;;;5062415;28;20220;-75
2022/12/09 05:00:53;;;;;;;9.70;6.27;;;-1.40;99.90;;;;;;5061732;28;20793;-77
2022/12/09 05:03:18;;;;;;;14.03;7.07;;;-1.50;99.90;;;;;;5062461;28;20076;-79
2022/12/09 05:05:45;;;;;;;11.13;5.43;;;-1.40;99.90;;;;;;5062929;28;20137;-76
2022/12/09 05:08:11;;;;;;;9.10;5.80;;;-1.50;99.90;;;;;;5061326;28;20733;-76
2022/12/09 05:10:36;;;;;;;12.87;7.90;;;-1.50;99.90;;;;;;5062577;28;20474;-77
2022/12/09 05:13:02;;;;;;;12.17;6.33;;;-1.40;99.90;;;;;;5062509;28;20087;-76
2022/12/09 05:15:28;;;;;;;35.57;8.47;;;-1.40;99.90;;;;;;5061543;28;20328;-75
2022/12/09 05:17:54;;;;;;;7.73;5.20;;;-1.40;99.90;;;;;;5060770;28;20072;-76
2022/12/09 05:20:19;;;;;;;11.90;8.57;;;-1.40;99.90;;;;;;5062721;28;20509;-77
2022/12/09 05:22:45;;;;;;;16.17;7.33;;;-1.40;99.90;;;;;;5062628;28;20040;-76
2022/12/09 05:25:10;;;;;;;10.53;5.80;;;-1.40;99.90;;;;;;5061824;28;20079;-76
2022/12/09 05:27:36;;;;;;;8.87;5.10;;;-1.40;99.90;;;;;;5056073;28;20058;-75
2022/12/09 05:30:02;;;;;;;7.67;6.73;;;-1.50;99.90;;;;;;5060944;28;20045;-75
2022/12/09 05:32:29;;;;;;;9.07;6.63;;;-1.50;99.90;;;;;;5060528;28;20506;-76
2022/12/09 05:34:55;;;;;;;10.03;5.90;;;-1.40;99.90;;;;;;5062290;28;20041;-77
2022/12/09 05:37:20;;;;;;;10.87;6.33;;;-1.40;99.90;;;;;;5061943;28;20501;-75
2022/12/09 05:39:46;;;;;;;10.27;4.97;;;-1.40;99.90;;;;;;5061176;28;20135;-76
2022/12/09 05:42:11;;;;;;;7.77;5.33;;;-1.40;99.90;;;;;;5056738;28;20048;-76
2022/12/09 05:44:37;;;;;;;11.47;6.37;;;-1.40;99.90;;;;;;5062597;28;20045;-75
2022/12/09 05:47:03;;;;;;;7.17;5.03;;;-1.40;99.90;;;;;;5047382;28;20136;-76
2022/12/09 05:49:28;;;;;;;7.67;4.73;;;-1.40;99.90;;;;;;5041664;28;20049;-77
2022/12/09 05:51:54;;;;;;;14.10;6.57;;;-1.40;99.90;;;;;;5042791;28;20411;-76
2022/12/09 05:54:20;;;;;;;16.87;7.77;;;-1.40;99.90;;;;;;5043435;28;20041;-75
2022/12/09 05:56:45;;;;;;;5.27;4.60;;;-1.40;99.90;;;;;;5043364;28;20890;-76
2022/12/09 05:59:11;;;;;;;14.57;8.20;;;-1.30;99.90;;;;;;5042512;28;20044;-77
2022/12/09 06:01:36;;;;;;;6.90;5.20;;;-1.30;99.90;;;;;;5042041;28;20049;-75
2022/12/09 06:04:02;;;;;;;15.77;8.07;;;-1.30;99.90;;;;;;5059203;28;20279;-76
2022/12/09 06:06:30;;;;;;;10.93;6.63;;;-1.30;99.90;;;;;;5061947;28;20075;-77
2022/12/09 06:09:00;;;;;;;17.70;11.50;;;-1.30;99.90;;;;;;5061461;28;20498;-77
2022/12/09 06:11:26;;;;;;;11.33;8.37;;;-1.30;99.90;;;;;;5062982;28;20060;-76
2022/12/09 06:13:53;;;;;;;10.33;6.53;;;-1.30;99.90;;;;;;5062403;28;20040;-75
2022/12/09 06:16:20;;;;;;;10.83;6.83;;;-1.30;99.90;;;;;;5056505;28;20032;-78
2022/12/09 06:18:47;;;;;;;14.73;7.83;;;-1.30;99.90;;;;;;5064448;28;20052;-75
2022/12/09 06:21:13;;;;;;;9.33;8.33;;;-1.30;99.90;;;;;;5057472;28;20045;-74
2022/12/09 06:23:40;;;;;;;9.23;6.67;;;-1.30;99.90;;;;;;5064267;28;20044;-75
2022/12/09 06:26:06;;;;;;;14.60;9.90;;;-1.30;99.90;;;;;;5063156;28;20044;-76
2022/12/09 06:28:32;;;;;;;12.63;7.40;;;-1.30;99.90;;;;;;5066387;28;20505;-75
2022/12/09 06:30:59;;;;;;;11.20;7.67;;;-1.30;99.90;;;;;;5065630;28;20511;-75
2022/12/09 06:33:25;;;;;;;9.60;7.43;;;-1.30;99.90;;;;;;5066180;28;20036;-75
2022/12/09 06:35:50;;;;;;;14.53;10.07;;;-1.20;99.90;;;;;;5060298;28;20841;-76
2022/12/09 06:38:16;;;;;;;18.33;8.43;;;-1.20;99.90;;;;;;5058709;28;20041;-75
2022/12/09 06:40:42;;;;;;;14.00;9.20;;;-1.20;99.90;;;;;;5052923;28;20507;-75
2022/12/09 06:43:09;;;;;;;15.33;8.70;;;-1.20;99.90;;;;;;5055239;28;20696;-76
2022/12/09 06:45:35;;;;;;;18.30;8.30;;;-1.20;99.90;;;;;;5063462;28;20094;-75
2022/12/09 06:48:01;;;;;;;19.87;11.50;;;-1.10;99.90;;;;;;5063869;28;20056;-75
2022/12/09 06:50:27;;;;;;;25.37;9.07;;;-1.10;99.90;;;;;;5065062;28;20036;-75
2022/12/09 06:52:52;;;;;;;19.83;10.43;;;-1.00;99.90;;;;;;5064015;28;20336;-75
2022/12/09 06:55:18;;;;;;;12.10;10.17;;;-1.00;99.90;;;;;;5064305;28;20094;-75
2022/12/09 06:57:43;;;;;;;20.53;10.73;;;-1.00;99.90;;;;;;5065407;28;20051;-75
2022/12/09 07:00:09;;;;;;;27.63;10.30;;;-0.90;99.90;;;;;;5049816;28;20552;-77
2022/12/09 07:02:35;;;;;;;17.27;12.90;;;-0.90;99.90;;;;;;5045692;28;20045;-77
2022/12/09 07:05:01;;;;;;;16.57;10.20;;;-0.90;99.90;;;;;;5061276;28;20048;-77
2022/12/09 07:07:26;;;;;;;16.40;10.90;;;-0.90;99.90;;;;;;5063411;28;20060;-77
2022/12/09 07:09:52;;;;;;;19.77;12.77;;;-0.90;99.90;;;;;;5063990;28;20040;-76
2022/12/09 07:12:18;;;;;;;21.93;11.60;;;-0.90;99.90;;;;;;5058702;28;20502;-82
2022/12/09 07:14:43;;;;;;;26.50;11.27;;;-0.80;99.90;;;;;;5056797;28;20044;-78
2022/12/09 07:17:15;;;;;;;16.53;11.47;;;-0.80;99.90;;;;;;5044572;28;20240;-77
2022/12/09 07:19:41;;;;;;;19.77;10.48;;;-0.80;99.90;;;;;;5050077;28;20040;-77
2022/12/09 07:22:06;;;;;;;22.20;12.07;;;-0.80;99.90;;;;;;5064353;28;20063;-78
2022/12/09 07:24:32;;;;;;;22.33;12.80;;;-0.80;99.90;;;;;;5065153;28;20127;-77
2022/12/09 07:26:57;;;;;;;18.27;10.80;;;-0.80;99.90;;;;;;5064475;28;20048;-79
2022/12/09 07:29:23;;;;;;;28.30;13.70;;;-0.90;99.90;;;;;;5064628;28;20750;-78
2022/12/09 07:31:49;;;;;;;23.80;14.03;;;-0.90;99.90;;;;;;5063463;28;20503;-79
2022/12/09 07:34:14;;;;;;;24.40;12.87;;;-0.80;99.90;;;;;;5064549;28;20155;-78
2022/12/09 07:36:40;;;;;;;31.63;15.83;;;-0.80;99.90;;;;;;5064674;28;20052;-78
2022/12/09 07:39:12;;;;;;;25.03;16.67;;;-0.80;99.90;;;;;;5064928;28;20102;-77
2022/12/09 07:41:38;;;;;;;29.73;14.88;;;-0.80;99.90;;;;;;5063643;28;20445;-78
2022/12/09 07:44:04;;;;;;;19.83;13.43;;;-0.90;99.90;;;;;;5063913;28;20048;-78
2022/12/09 07:46:29;;;;;;;24.00;14.63;;;-0.90;99.90;;;;;;5062935;28;20032;-78
2022/12/09 07:48:56;;;;;;;25.43;13.90;;;-0.80;99.90;;;;;;5064153;28;20126;-79
2022/12/09 07:51:23;;;;;;;17.23;11.43;;;-0.90;99.90;;;;;;5064343;28;20041;-78
2022/12/09 07:53:48;;;;;;;24.87;12.73;;;-0.90;99.90;;;;;;5045865;28;20044;-80
2022/12/09 07:56:16;;;;;;;21.13;11.43;;;-0.90;99.90;;;;;;5064373;28;20051;-79
2022/12/09 07:58:42;;;;;;;24.67;13.40;;;-0.90;99.90;;;;;;5064026;28;20041;-79
2022/12/09 08:01:11;;;;;;;26.50;14.17;;;-0.90;99.90;;;;;;5061653;28;20048;-77
2022/12/09 08:03:38;;;;;;;23.57;13.50;;;-0.90;99.90;;;;;;5064123;28;20040;-78
2022/12/09 08:06:05;;;;;;;24.70;15.43;;;-0.90;99.90;;;;;;5063295;28;20041;-78
2022/12/09 08:08:31;;;;;;;24.97;13.60;;;-0.90;99.90;;;;;;5063483;28;20493;-78
2022/12/09 08:11:06;;;;;;;32.70;16.83;;;-0.80;99.90;;;;;;5062442;28;20474;-79
2022/12/09 08:13:31;;;;;;;29.77;17.93;;;-0.80;99.90;;;;;;5064114;28;20336;-78
2022/12/09 08:16:04;;;;;;;41.53;22.30;;;-0.90;99.90;;;;;;5060643;28;20040;-78
2022/12/09 08:18:30;;;;;;;21.43;16.93;;;-0.90;99.90;;;;;;5063638;28;20119;-78
2022/12/09 08:20:56;;;;;;;35.50;16.67;;;-0.90;99.90;;;;;;5062984;28;20047;-78
2022/12/09 08:23:21;;;;;;;29.73;16.03;;;-0.80;99.90;;;;;;5062996;28;20036;-78
2022/12/09 08:25:52;;;;;;;31.60;16.93;;;-0.80;99.90;;;;;;5063465;28;20339;-78
2022/12/09 08:28:18;;;;;;;29.23;16.80;;;-0.80;99.90;;;;;;5062315;28;20105;-79
2022/12/09 08:30:43;;;;;;;26.37;16.17;;;-0.70;99.90;;;;;;5062200;28;20044;-78
2022/12/09 08:33:09;;;;;;;36.47;18.67;;;-0.70;99.90;;;;;;5062586;28;20059;-78
2022/12/09 08:35:36;;;;;;;48.07;23.27;;;-0.70;99.90;;;;;;5062797;28;20074;-79
2022/12/09 08:38:02;;;;;;;74.40;28.13;;;-0.60;99.90;;;;;;5062685;28;20062;-78
2022/12/09 08:40:28;;;;;;;151.10;37.73;;;-0.60;99.90;;;;;;5063485;28;20433;-78
2022/12/09 08:42:54;;;;;;;73.37;27.23;;;-0.50;99.90;;;;;;5062805;28;20045;-78
2022/12/09 08:45:20;;;;;;;99.97;34.33;;;-0.40;99.90;;;;;;5061938;28;20410;-79
2022/12/09 08:47:45;;;;;;;81.83;27.53;;;-0.50;99.90;;;;;;5062263;28;20050;-78
2022/12/09 08:50:11;;;;;;;114.30;34.17;;;-0.40;99.90;;;;;;5062375;28;20128;-79
2022/12/09 08:52:37;;;;;;;78.10;28.10;;;-0.40;99.90;;;;;;5062741;28;20041;-78
2022/12/09 08:55:02;;;;;;;159.23;36.90;;;-0.30;99.90;;;;;;5061356;28;20282;-79
2022/12/09 08:57:28;;;;;;;119.33;35.00;;;-0.30;99.90;;;;;;5061424;28;20051;-78
2022/12/09 08:59:54;;;;;;;101.37;35.17;;;-0.30;99.90;;;;;;5061026;28;20040;-78
2022/12/09 09:02:19;;;;;;;119.23;31.07;;;-0.20;99.90;;;;;;5062502;28;20041;-79
2022/12/09 09:04:45;;;;;;;73.53;26.07;;;-0.20;99.90;;;;;;5062379;28;20035;-78
2022/12/09 09:07:11;;;;;;;75.83;29.67;;;-0.20;99.90;;;;;;5061427;28;20048;-78
2022/12/09 09:09:38;;;;;;;113.40;30.63;;;-0.20;99.90;;;;;;5045298;28;20105;-78
2022/12/09 09:12:03;;;;;;;76.90;29.27;;;-0.20;99.90;;;;;;5049283;28;20053;-82
2022/12/09 09:14:29;;;;;;;88.87;28.43;;;-0.10;99.90;;;;;;5060266;28;20044;-80
2022/12/09 09:16:55;;;;;;;56.20;25.67;;;-0.10;99.90;;;;;;5061428;28;20328;-78
2022/12/09 09:19:24;;;;;;;109.57;30.80;;;-0.10;99.90;;;;;;5058271;28;20043;-82
2022/12/09 09:21:53;;;;;;;74.47;25.50;;;-0.10;99.90;;;;;;5062506;28;20109;-84
2022/12/09 09:24:23;;;;;;;59.90;25.20;;;-0.10;99.90;;;;;;5054488;28;20476;-80
2022/12/09 09:26:50;;;;;;;124.73;34.50;;;0.00;99.90;;;;;;5053066;28;20040;-80
2022/12/09 09:29:18;;;;;;;60.80;23.20;;;0.00;99.90;;;;;;5061716;28;20040;-77
2022/12/09 09:31:47;;;;;;;75.80;28.00;;;0.00;99.90;;;;;;5062927;28;20052;-78
2022/12/09 09:34:15;;;;;;;68.03;24.97;;;0.10;99.90;;;;;;5061132;28;20691;-75
2022/12/09 09:36:42;;;;;;;119.80;29.13;;;0.10;99.90;;;;;;5060126;28;20037;-75
2022/12/09 09:39:07;;;;;;;75.53;23.87;;;0.10;99.90;;;;;;5061628;28;20040;-74
2022/12/09 09:41:33;;;;;;;158.23;39.47;;;0.10;99.90;;;;;;5061244;28;20045;-75
2022/12/09 09:43:59;;;;;;;107.53;32.30;;;0.10;99.90;;;;;;5061744;28;20060;-75
2022/12/09 09:46:35;;;;;;;127.37;32.10;;;0.20;99.90;;;;;;5059773;28;20043;-76
2022/12/09 09:49:04;;;;;;;110.30;32.50;;;0.20;99.90;;;;;;5061200;28;20285;-75
2022/12/09 09:51:32;;;;;;;104.80;29.93;;;0.20;99.90;;;;;;5061519;28;20044;-76
2022/12/09 09:53:58;;;;;;;109.97;25.97;;;0.20;99.90;;;;;;5059692;28;20040;-76
2022/12/09 09:56:45;;;;;;;75.80;26.07;;;0.20;99.90;;;;;;5061708;28;20506;-76
2022/12/09 09:59:15;;;;;;;55.40;23.17;;;0.30;99.90;;;;;;5060267;28;20113;-75
2022/12/09 10:01:47;;;;;;;104.80;29.27;;;0.30;99.90;;;;;;5061713;28;20065;-75
2022/12/09 10:04:17;;;;;;;;;;;0.30;99.90;;;;;;5060521;28;20388;-76
2022/12/09 10:06:48;;;;;;;81.60;20.93;;;0.40;99.90;;;;;;5061446;28;19920;-75
2022/12/09 10:09:52;;;;;;;28.30;15.23;;;0.40;99.90;;;;;;5061890;28;20048;-75
2022/12/09 10:12:46;;;;;;;37.97;19.33;;;0.40;99.90;;;;;;5039306;28;20055;-75
2022/12/09 10:15:17;;;;;;;33.87;15.97;;;0.40;99.90;;;;;;5058888;28;20265;-76
2022/12/09 10:17:50;;;;;;;72.73;24.90;;;0.40;99.90;;;;;;5061262;28;20071;-76
2022/12/09 10:20:20;;;;;;;53.43;19.90;;;0.50;99.90;;;;;;5043115;28;20068;-75
2022/12/09 10:22:48;;;;;;;36.40;17.30;;;0.50;99.90;;;;;;5061881;28;20258;-76
2022/12/09 10:25:23;;;;;;;67.00;23.93;;;0.50;99.90;;;;;;5061263;28;20509;-76
2022/12/09 10:28:03;;;;;;;46.77;22.40;;;0.50;99.90;;;;;;5060945;28;20045;-78
2022/12/09 10:30:29;;;;;;;80.57;27.30;;;0.60;99.90;;;;;;5059342;28;20041;-76
2022/12/09 10:32:54;;;;;;;69.87;23.60;;;0.60;99.90;;;;;;5061226;28;20079;-75
2022/12/09 10:35:27;;;;;;;81.77;28.50;;;0.60;99.90;;;;;;5058489;28;20045;-75
2022/12/09 10:37:55;;;;;;;40.43;19.43;;;0.60;99.90;;;;;;5060500;28;20087;-75
2022/12/09 10:40:45;;;;;;;66.37;27.03;;;0.70;99.90;;;;;;5060480;28;20053;-76
2022/12/09 10:43:34;;;;;;;52.53;20.63;;;0.60;99.90;;;;;;5060854;28;20044;-76
2022/12/09 10:46:03;;;;;;;57.67;22.10;;;0.70;99.90;;;;;;5059809;28;20044;-76
2022/12/09 10:48:31;;;;;;;75.13;21.50;;;0.70;99.90;;;;;;5060705;28;20135;-75
2022/12/09 10:51:01;;;;;;;60.80;21.90;;;0.70;99.90;;;;;;5058886;28;20054;-76
2022/12/09 10:53:28;;;;;;;65.67;23.30;;;0.70;99.90;;;;;;5061098;28;20445;-76
2022/12/09 10:55:55;;;;;;;61.63;22.07;;;0.70;99.90;;;;;;5061128;28;20043;-76
2022/12/09 10:58:26;;;;;;;42.33;18.27;;;0.70;99.90;;;;;;5061370;28;20040;-75
2022/12/09 11:01:10;;;;;;;70.27;24.83;;;0.80;99.90;;;;;;5059647;28;20124;-75
2022/12/09 11:03:39;;;;;;;45.57;20.43;;;0.80;99.90;;;;;;5060505;28;20041;-76
2022/12/09 11:06:24;;;;;;;90.47;24.67;;;0.80;99.90;;;;;;5061526;28;20041;-76
2022/12/09 11:08:56;;;;;;;121.33;31.40;;;0.80;99.90;;;;;;5063937;28;20105;-76
2022/12/09 11:11:45;;;;;;;99.75;35.67;;;0.80;99.90;;;;;;5062914;28;20454;-75
2022/12/09 11:14:35;;;;;;;49.40;19.97;;;0.80;99.90;;;;;;5063603;28;20044;-76
2022/12/09 11:17:16;;;;;;;68.73;21.67;;;0.90;99.90;;;;;;5064345;28;20148;-76
2022/12/09 11:19:43;;;;;;;40.87;19.07;;;0.90;99.90;;;;;;5064533;28;20032;-75
2022/12/09 11:22:13;;;;;;;77.30;23.47;;;0.90;99.90;;;;;;5063946;28;20372;-78
2022/12/09 11:24:39;;;;;;;78.27;28.97;;;0.90;99.90;;;;;;5064385;28;20041;-77
2022/12/09 11:27:26;;;;;;;70.93;25.13;;;0.90;99.90;;;;;;5064333;28;20321;-77
2022/12/09 11:30:17;;;;;;;71.83;24.73;;;0.90;99.90;;;;;;5063574;28;20037;-75
2022/12/09 11:33:16;;;;;;;62.37;21.33;;;1.00;99.90;;;;;;5052688;28;20391;-76
2022/12/09 11:35:42;;;;;;;69.77;22.30;;;1.00;99.90;;;;;;5064404;28;20115;-76
2022/12/09 11:38:26;;;;;;;91.37;29.57;;;1.00;99.90;;;;;;5059129;28;20124;-77
2022/12/09 11:41:10;;;;;;;47.73;19.23;;;1.00;99.90;;;;;;5063637;28;20119;-78
2022/12/09 11:43:45;;;;;;;122.23;35.80;;;1.10;99.90;;;;;;5064726;28;20128;-76
2022/12/09 11:46:11;;;;;;;47.83;22.07;;;1.10;99.90;;;;;;5054703;28;20358;-81
2022/12/09 11:48:38;;;;;;;73.47;24.87;;;1.10;99.90;;;;;;5064665;28;20052;-79
2022/12/09 11:51:04;;;;;;;59.90;24.60;;;1.10;99.90;;;;;;5053841;28;20029;-79
2022/12/09 11:53:38;;;;;;;100.63;31.23;;;1.10;99.90;;;;;;5054933;28;20280;-81
2022/12/09 11:56:14;;;;;;;95.27;27.63;;;1.10;99.90;;;;;;5064152;28;20054;-81
2022/12/09 11:58:58;;;;;;;112.87;29.77;;;1.10;99.90;;;;;;5063019;28;20146;-81
2022/12/09 12:02:03;;;;;;;88.03;26.97;;;1.20;99.90;;;;;;5029698;28;20053;-83
2022/12/09 12:04:48;;;;;;;91.33;25.47;;;1.20;99.90;;;;;;5048871;28;20068;-81
2022/12/09 12:07:29;;;;;;;53.47;22.27;;;1.20;99.90;;;;;;5062751;28;20044;-88
2022/12/09 12:09:57;;;;;;;140.30;37.93;;;1.20;99.90;;;;;;5060838;28;20032;-85
2022/12/09 12:13:01;;;;;;;122.90;34.13;;;1.20;99.90;;;;;;5056694;28;20044;-83
2022/12/09 12:15:45;;;;;;;84.10;27.33;;;1.20;99.90;;;;;;5060029;28;20044;-82
2022/12/09 12:18:20;;;;;;;59.97;26.23;;;1.30;99.90;;;;;;5063031;28;20166;-83
2022/12/09 12:21:22;;;;;;;54.90;24.40;;;1.30;99.90;;;;;;5064259;28;20051;-82
2022/12/09 12:23:56;;;;;;;88.25;32.15;;;1.30;99.90;;;;;;5064458;28;20493;-81
2022/12/09 12:26:25;;;;;;;97.10;33.60;;;1.30;99.90;;;;;;5045804;28;20067;-83
2022/12/09 12:29:22;;;;;;;69.50;26.47;;;1.30;99.90;;;;;;5063077;28;20041;-82
2022/12/09 12:32:03;;;;;;;106.27;31.03;;;1.40;99.90;;;;;;5064581;28;20045;-82
2022/12/09 12:34:37;;;;;;;51.73;24.20;;;1.30;99.90;;;;;;5061973;28;20046;-81
2022/12/09 12:37:25;;;;;;;53.57;23.67;;;1.40;99.90;;;;;;5061883;28;20052;-82
2022/12/09 12:40:33;;;;;;;86.27;24.57;;;1.40;99.90;;;;;;5062784;28;20052;-81
2022/12/09 12:46:18;;;;;;;177.23;44.75;;;1.50;99.90;;;;;;5062823;28;20123;-81
2022/12/09 12:49:03;;;;;;;62.28;24.60;;;1.50;99.90;;;;;;5062672;28;20040;-79
2022/12/09 12:51:40;;;;;;;103.87;34.20;;;1.50;99.90;;;;;;5045550;28;20045;-79